createdAt,value
2023-03-15T00:02:19.262Z,1.12
2023-03-15T00:07:25.816Z,1.90
2023-03-15T00:12:32.009Z,1.52
2023-03-15T00:17:35.775Z,1.60
2023-03-15T00:22:39.539Z,1.60
2023-03-15T00:27:44.556Z,1.73
2023-03-15T00:32:48.361Z,1.67
2023-03-15T00:37:56.105Z,1.77
2023-03-15T00:43:01.186Z,1.83
2023-03-15T00:48:06.122Z,1.90
2023-03-15T00:53:11.549Z,2.30
2023-03-15T00:58:16.578Z,2.87
2023-03-15T01:03:20.860Z,2.35
2023-03-15T01:08:25.385Z,3.28
2023-03-15T01:13:31.020Z,3.03
2023-03-15T01:18:34.949Z,3.70
2023-03-15T01:23:39.283Z,4.53
2023-03-15T01:28:44.409Z,4.55
2023-03-15T01:33:48.509Z,5.68
2023-03-15T01:38:53.846Z,5.28
2023-03-15T01:44:00.683Z,5.72
2023-03-15T01:49:08.659Z,5.85
2023-03-15T01:54:18.973Z,6.25
2023-03-15T01:59:28.396Z,5.50
2023-03-15T02:04:37.318Z,4.97
2023-03-15T02:09:49.641Z,3.85
2023-03-15T02:14:55.910Z,3.65
2023-03-15T02:20:12.484Z,3.40
2023-03-15T02:25:27.493Z,2.35
2023-03-15T02:30:32.746Z,4.43
2023-03-15T02:35:36.794Z,4.90
2023-03-15T02:40:41.236Z,5.62
2023-03-15T02:45:47.113Z,6.20
2023-03-15T02:50:50.870Z,5.85
2023-03-15T02:55:54.614Z,6.53
2023-03-15T03:00:59.765Z,5.75
2023-03-15T03:06:03.605Z,5.45
2023-03-15T03:11:08.153Z,5.47
2023-03-15T03:16:14.014Z,5.62
2023-03-15T03:21:19.262Z,4.30
2023-03-15T03:26:28.052Z,4.03
2023-03-15T03:31:34.487Z,5.70
2023-03-15T03:36:38.682Z,10.50
2023-03-15T03:41:42.797Z,8.43
2023-03-15T03:46:50.087Z,8.10
2023-03-15T03:51:54.135Z,10.85
2023-03-15T03:56:58.506Z,5.78
2023-03-15T04:02:05.633Z,6.18
2023-03-15T04:07:10.889Z,10.27
2023-03-15T04:12:15.918Z,5.20
2023-03-15T04:17:23.308Z,6.18
2023-03-15T04:22:27.246Z,4.07
2023-03-15T04:27:32.116Z,5.40
2023-03-15T04:32:37.637Z,4.70
2023-03-15T04:37:42.576Z,5.03
2023-03-15T04:42:47.205Z,6.93
2023-03-15T04:47:53.296Z,5.07
2023-03-15T04:52:59.178Z,3.93
2023-03-15T04:58:03.364Z,5.47
2023-03-15T05:03:08.582Z,5.45
2023-03-15T05:08:13.943Z,5.62
2023-03-15T05:13:18.929Z,5.37
2023-03-15T05:18:24.724Z,5.22
2023-03-15T05:23:28.909Z,6.75
2023-03-15T05:28:33.751Z,5.43
2023-03-15T05:33:46.698Z,8.43
2023-03-15T05:38:51.775Z,6.45
2023-03-15T05:43:56.126Z,6.30
2023-03-15T05:49:01.452Z,7.10
2023-03-15T05:54:05.773Z,7.22
2023-03-15T05:59:09.736Z,8.65
2023-03-15T06:04:15.445Z,9.55
2023-03-15T06:09:19.515Z,11.10
2023-03-15T06:14:23.368Z,12.05
2023-03-15T06:19:28.912Z,10.80
2023-03-15T06:24:33.055Z,9.77
2023-03-15T06:29:36.973Z,10.70
2023-03-15T06:34:44.307Z,11.05
2023-03-15T06:39:51.074Z,10.68
2023-03-15T06:44:55.305Z,9.80
2023-03-15T06:50:00.529Z,10.07
2023-03-15T06:55:04.595Z,11.45
2023-03-15T07:00:11.290Z,8.05
2023-03-15T07:05:16.549Z,7.53
2023-03-15T07:10:20.440Z,7.72
2023-03-15T07:15:24.377Z,7.28
2023-03-15T07:20:29.407Z,6.68
2023-03-15T07:25:37.645Z,6.40
2023-03-15T07:30:54.006Z,5.60
2023-03-15T07:35:59.186Z,5.25
2023-03-15T07:41:03.842Z,5.10
2023-03-15T07:46:07.954Z,4.28
2023-03-15T07:51:13.254Z,4.43
2023-03-15T07:56:17.269Z,3.58
2023-03-15T08:01:21.626Z,3.55
2023-03-15T08:06:26.871Z,3.35
2023-03-15T08:11:30.822Z,3.30
2023-03-15T08:16:34.602Z,3.37
2023-03-15T08:21:39.805Z,3.33
2023-03-15T08:26:43.729Z,2.33
2023-03-15T08:31:47.539Z,2.60
2023-03-15T08:36:52.707Z,2.28
2023-03-15T08:41:56.521Z,3.03
2023-03-15T08:47:00.286Z,2.75
2023-03-15T08:52:06.002Z,2.65
2023-03-15T08:57:09.905Z,2.10
2023-03-15T09:02:13.794Z,1.98
2023-03-15T09:07:19.036Z,2.30
2023-03-15T09:12:23.256Z,2.78
2023-03-15T09:17:27.020Z,3.12
2023-03-15T09:22:38.884Z,2.08
2023-03-15T09:27:42.976Z,1.70
2023-03-15T09:32:46.846Z,2.47
2023-03-15T09:37:52.612Z,2.28
2023-03-15T09:43:16.813Z,1.95
2023-03-15T09:48:26.016Z,1.75
2023-03-15T09:53:38.155Z,1.77
2023-03-15T09:58:42.192Z,2.08
2023-03-15T10:03:50.045Z,1.20
2023-03-15T10:08:58.442Z,1.75
2023-03-15T10:14:19.341Z,1.80
2023-03-15T10:19:32.705Z,1.62
2023-03-15T10:24:46.173Z,1.77
2023-03-15T10:29:51.603Z,1.30
2023-03-15T10:34:58.753Z,1.23
2023-03-15T10:40:07.902Z,1.05
2023-03-15T10:45:21.922Z,1.62
2023-03-15T10:50:28.793Z,1.37
2023-03-15T10:55:36.959Z,1.40
2023-03-15T11:00:49.263Z,1.23
2023-03-15T11:05:55.643Z,1.17
2023-03-15T11:11:01.150Z,1.00
2023-03-15T11:16:08.335Z,0.98
2023-03-15T11:21:15.336Z,1.00
2023-03-15T11:26:32.366Z,1.20
2023-03-15T11:31:37.492Z,1.10
2023-03-15T11:36:46.277Z,1.75
2023-03-15T11:41:57.809Z,1.05
2023-03-15T11:47:06.061Z,1.00
2023-03-15T11:57:40.868Z,1.35
2023-03-15T12:02:50.948Z,1.00
2023-03-15T12:08:16.919Z,1.90
2023-03-15T12:13:25.440Z,1.40
2023-03-15T12:18:34.066Z,1.15
2023-03-15T12:23:44.125Z,1.08
2023-03-15T12:28:54.795Z,1.00
2023-03-15T12:34:01.344Z,0.85
2023-03-15T12:39:22.890Z,1.17
2023-03-15T12:44:40.043Z,1.10
2023-03-15T12:49:45.619Z,1.30
2023-03-15T12:54:52.875Z,0.70
2023-03-15T13:00:01.717Z,0.85
2023-03-15T13:05:18.083Z,0.80
2023-03-15T13:10:39.474Z,0.90
2023-03-15T13:15:55.074Z,0.80
2023-03-15T13:21:11.607Z,2.03
2023-03-15T13:26:35.142Z,1.00
2023-03-15T13:31:40.447Z,0.80
2023-03-15T13:36:47.772Z,1.15
2023-03-15T13:41:57.953Z,0.85
2023-03-15T13:47:03.301Z,0.88
2023-03-15T13:52:12.284Z,0.93
2023-03-15T13:57:18.608Z,0.80
2023-03-15T14:02:26.788Z,1.10
2023-03-15T14:07:37.712Z,1.00
2023-03-15T14:12:41.545Z,0.90
2023-03-15T14:17:58.710Z,0.85
2023-03-15T14:23:04.985Z,1.20
2023-03-15T14:28:15.842Z,1.08
2023-03-15T14:33:33.034Z,1.10
2023-03-15T14:38:38.900Z,1.07
2023-03-15T14:43:42.650Z,1.33
2023-03-15T14:48:48.052Z,1.10
2023-03-15T14:53:54.465Z,0.98
2023-03-15T14:58:58.190Z,1.20
2023-03-15T15:04:04.831Z,1.12
2023-03-15T15:09:08.662Z,1.20
2023-03-15T15:14:14.451Z,1.20
2023-03-15T15:19:19.509Z,1.10
2023-03-15T15:24:26.968Z,1.40
2023-03-15T15:29:30.958Z,1.30
2023-03-15T15:34:37.201Z,1.15
2023-03-15T15:39:41.660Z,1.40
2023-03-15T15:44:45.976Z,1.50
2023-03-15T15:49:51.086Z,1.12
2023-03-15T15:54:54.867Z,1.27
2023-03-15T15:59:58.769Z,1.33
2023-03-15T16:05:04.044Z,1.17
2023-03-15T16:10:09.013Z,1.87
2023-03-15T16:15:13.952Z,1.40
2023-03-15T16:20:19.780Z,1.25
2023-03-15T16:25:28.483Z,1.52
2023-03-15T16:30:33.472Z,1.42
2023-03-15T16:35:39.387Z,1.05
2023-03-15T16:40:45.534Z,1.40
2023-03-15T16:45:49.309Z,1.20
2023-03-15T16:50:55.343Z,2.03
2023-03-15T16:55:59.270Z,2.30
2023-03-15T17:01:03.042Z,1.30
2023-03-15T17:06:17.883Z,1.33
2023-03-15T17:11:22.887Z,1.75
2023-03-15T17:16:27.543Z,1.50
2023-03-15T17:21:36.092Z,2.58
2023-03-15T17:26:42.172Z,1.40
2023-03-15T17:31:46.230Z,9.50
2023-03-15T17:36:52.188Z,2.30
2023-03-15T17:41:55.973Z,1.75
2023-03-15T17:47:01.526Z,1.67
2023-03-15T17:52:14.290Z,2.15
2023-03-15T17:57:18.708Z,3.92
2023-03-15T18:02:23.038Z,2.53
2023-03-15T18:07:31.001Z,2.20
2023-03-15T18:12:35.942Z,1.90
2023-03-15T18:17:40.963Z,2.40
2023-03-15T18:22:46.870Z,3.17
2023-03-15T18:27:51.717Z,3.10
2023-03-15T18:32:56.751Z,2.70
2023-03-15T18:38:02.214Z,2.30
2023-03-15T18:43:06.375Z,2.53
2023-03-15T18:48:10.196Z,2.42
2023-03-15T18:53:15.256Z,3.25
2023-03-15T18:58:19.051Z,2.75
2023-03-15T19:03:22.911Z,3.25
2023-03-15T19:08:28.098Z,3.87
2023-03-15T19:13:31.849Z,3.15
2023-03-15T19:18:35.759Z,3.92
2023-03-15T19:23:40.841Z,3.40
2023-03-15T19:28:44.854Z,3.87
2023-03-15T19:33:48.577Z,3.35
2023-03-15T19:38:53.645Z,4.30
2023-03-15T19:43:57.657Z,3.95
2023-03-15T19:49:02.297Z,4.22
2023-03-15T19:54:07.709Z,3.62
2023-03-15T19:59:11.390Z,3.92
2023-03-15T20:04:15.115Z,3.75
2023-03-15T20:09:20.776Z,4.30
2023-03-15T20:14:24.887Z,4.00
2023-03-15T20:19:28.822Z,3.65
2023-03-15T20:24:34.033Z,3.58
2023-03-15T20:29:38.003Z,3.50
2023-03-15T20:34:42.371Z,3.67
2023-03-15T20:39:47.903Z,3.25
2023-03-15T20:44:52.933Z,3.90
2023-03-15T20:49:56.761Z,3.37
2023-03-15T20:55:03.556Z,3.90
2023-03-15T21:00:12.932Z,3.30
2023-03-15T21:05:21.134Z,3.33
2023-03-15T21:10:27.344Z,3.92
2023-03-15T21:15:32.176Z,3.47
2023-03-15T21:20:37.016Z,3.72
2023-03-15T21:25:43.052Z,3.70
2023-03-15T21:30:52.710Z,3.67
2023-03-15T21:35:59.378Z,3.95
2023-03-15T21:41:10.321Z,4.15
2023-03-15T21:46:17.099Z,4.37
2023-03-15T21:51:22.371Z,4.65
2023-03-15T21:56:27.806Z,4.82
2023-03-15T22:01:31.561Z,4.57
2023-03-15T22:06:35.296Z,5.15
2023-03-15T22:11:40.368Z,5.30
2023-03-15T22:16:44.353Z,5.55
2023-03-15T22:21:48.159Z,4.65
2023-03-15T22:26:53.955Z,5.25
2023-03-15T22:31:57.728Z,5.60
2023-03-15T22:37:02.614Z,5.00
2023-03-15T22:42:08.048Z,5.03
2023-03-15T22:47:11.853Z,5.25
2023-03-15T22:52:15.692Z,4.90
2023-03-15T22:57:20.770Z,4.57
2023-03-15T23:02:24.881Z,5.07
2023-03-15T23:07:28.571Z,5.18
2023-03-15T23:12:36.299Z,5.50
2023-03-15T23:17:45.780Z,5.18
2023-03-15T23:22:50.285Z,5.20
2023-03-15T23:27:56.514Z,5.72
2023-03-15T23:33:00.743Z,5.20
2023-03-15T23:38:04.444Z,4.93
2023-03-15T23:43:09.518Z,5.22
2023-03-15T23:48:13.779Z,5.30
2023-03-15T23:53:17.536Z,4.90
2023-03-15T23:58:23.033Z,5.75
